Time,TemperatureF,DewpointF,PressureIn,WindDirection,WindDirectionDegrees,WindSpeedMPH,WindSpeedGustMPH,Humidity,HourlyPrecipIn,Conditions,Clouds,dailyrainin,SoftwareType,DateUTC
2013-03-18 07:55:00,32.4,10.2,29.86,NW,315,4.0,11.0,39,0.00,,---,0.00,VWS V14.01,2013-03-18 13:55:00,
2013-03-18 08:10:00,32.4,10.2,29.86,NW,315,4.0,11.0,39,0.00,,---,0.00,VWS V14.01,2013-03-18 14:10:00,
2013-03-18 08:11:00,33.0,10.2,29.84,NW,310,4.0,6.0,38,0.00,,---,0.00,VWS V14.01,2013-03-18 14:11:00,
2013-03-18 08:16:00,33.4,9.9,29.84,NW,323,7.0,9.0,37,0.00,,---,0.00,VWS V14.01,2013-03-18 14:16:00,
2013-03-18 08:21:00,33.7,10.2,29.83,West,281,7.0,8.0,37,0.00,,---,0.00,VWS V14.01,2013-03-18 14:21:00,
2013-03-18 08:26:00,33.9,10.4,29.83,WNW,282,0.0,8.0,37,0.00,,---,0.00,VWS V14.01,2013-03-18 14:26:00,
2013-03-18 08:31:00,34.2,10.1,29.83,WNW,300,3.0,8.0,36,0.00,,---,0.00,VWS V14.01,2013-03-18 14:31:00,
2013-03-18 08:36:00,34.3,10.1,29.84,WNW,300,4.0,8.0,36,0.00,,---,0.00,VWS V14.01,2013-03-18 14:36:00,
2013-03-18 08:41:00,34.4,10.2,29.84,NNW,341,9.0,11.0,36,0.00,,---,0.00,VWS V14.01,2013-03-18 14:41:00,
2013-03-18 08:46:00,34.5,9.7,29.84,NNW,335,2.0,12.0,35,0.00,,---,0.00,VWS V14.01,2013-03-18 14:46:00,
2013-03-18 08:51:00,34.9,9.4,29.84,WNW,294,7.0,13.0,34,0.00,,---,0.00,VWS V14.01,2013-03-18 14:51:00,
2013-03-18 08:56:00,35.0,9.5,29.85,NW,309,4.0,9.0,34,0.00,,---,0.00,VWS V14.01,2013-03-18 14:56:00,
2013-03-18 09:01:00,34.8,8.6,29.85,WNW,299,9.0,10.0,33,0.00,,---,0.00,VWS V14.01,2013-03-18 15:01:00,
2013-03-18 09:06:00,34.8,8.6,29.86,West,280,6.0,12.0,33,0.00,,---,0.00,VWS V14.01,2013-03-18 15:06:00,
2013-03-18 09:11:00,35.1,8.9,29.85,SSW,211,13.0,13.0,33,0.00,,---,0.00,VWS V14.01,2013-03-18 15:11:00,
2013-03-18 09:16:00,35.4,9.8,29.85,NNW,338,7.0,8.0,34,0.00,,---,0.00,VWS V14.01,2013-03-18 15:16:00,
2013-03-18 09:21:00,35.0,8.1,29.85,WNW,296,6.0,8.0,32,0.00,,---,0.00,VWS V14.01,2013-03-18 15:21:00,
2013-03-18 09:26:00,35.4,9.8,29.85,WNW,295,7.0,9.0,34,0.00,,---,0.00,VWS V14.01,2013-03-18 15:26:00,
2013-03-18 09:31:00,35.9,8.9,29.86,WNW,303,14.0,14.0,32,0.00,,---,0.00,VWS V14.01,2013-03-18 15:31:00,
2013-03-18 09:36:00,35.8,9.5,29.85,NNW,337,12.0,14.0,33,0.00,,---,0.00,VWS V14.01,2013-03-18 15:36:00,
2013-03-18 09:41:00,36.0,9.0,29.86,WNW,299,7.0,7.0,32,0.00,,---,0.00,VWS V14.01,2013-03-18 15:41:00,
2013-03-18 09:46:00,35.6,8.7,29.87,West,268,16.0,16.0,32,0.00,,---,0.00,VWS V14.01,2013-03-18 15:46:00,
2013-03-18 09:51:00,35.4,8.5,29.86,WNW,292,8.0,8.0,32,0.00,,---,0.00,VWS V14.01,2013-03-18 15:51:00,
2013-03-18 09:56:00,35.4,9.2,29.86,NW,310,7.0,10.0,33,0.00,,---,0.00,VWS V14.01,2013-03-18 15:56:00,
2013-03-18 10:01:00,35.5,8.6,29.86,WNW,296,7.0,7.0,32,0.00,,---,0.00,VWS V14.01,2013-03-18 16:01:00,
2013-03-18 10:06:00,35.3,9.1,29.88,NNW,332,6.0,9.0,33,0.00,,---,0.00,VWS V14.01,2013-03-18 16:06:00,
2013-03-18 10:11:00,35.1,9.6,29.88,NW,321,7.0,7.0,34,0.00,,---,0.00,VWS V14.01,2013-03-18 16:11:00,
2013-03-18 10:16:00,35.2,9.0,29.88,WNW,300,6.0,8.0,33,0.00,,---,0.00,VWS V14.01,2013-03-18 16:16:00,
2013-03-18 10:21:00,35.2,9.0,29.88,SW,225,6.0,6.0,33,0.00,,---,0.00,VWS V14.01,2013-03-18 16:21:00,
2013-03-18 10:26:00,35.2,9.7,29.88,West,280,8.0,19.0,34,0.00,,---,0.00,VWS V14.01,2013-03-18 16:26:00,
2013-03-18 10:31:00,35.5,9.9,29.88,West,260,6.0,7.0,34,0.00,,---,0.00,VWS V14.01,2013-03-18 16:31:00,
2013-03-18 10:36:00,36.2,9.9,29.88,WNW,292,10.0,18.0,33,0.00,,---,0.00,VWS V14.01,2013-03-18 16:36:00,
2013-03-18 10:42:00,37.1,10.0,29.86,NW,314,14.0,18.0,32,0.00,,---,0.00,VWS V14.01,2013-03-18 16:42:00,
2013-03-18 10:47:00,37.6,9.0,29.85,West,279,14.0,19.0,30,0.00,,---,0.00,VWS V14.01,2013-03-18 16:47:00,
2013-03-18 10:52:00,38.0,11.5,29.86,WSW,252,8.0,11.0,33,0.00,,---,0.00,VWS V14.01,2013-03-18 16:52:00,
2013-03-18 10:57:00,38.7,10.7,29.85,NW,306,16.0,16.0,31,0.00,,---,0.00,VWS V14.01,2013-03-18 16:57:00,
2013-03-18 11:02:00,38.5,10.5,29.85,West,263,9.0,14.0,31,0.00,,---,0.00,VWS V14.01,2013-03-18 17:02:00,
2013-03-18 11:07:00,38.4,9.7,29.85,West,266,9.0,9.0,30,0.00,,---,0.00,VWS V14.01,2013-03-18 17:07:00,
2013-03-18 11:12:00,38.5,9.8,29.85,WSW,242,15.0,15.0,30,0.00,,---,0.00,VWS V14.01,2013-03-18 17:12:00,
2013-03-18 11:17:00,38.4,8.9,29.86,NW,309,12.0,21.0,29,0.00,,---,0.00,VWS V14.01,2013-03-18 17:17:00,
2013-03-18 11:22:00,38.6,9.1,29.86,WNW,295,11.0,13.0,29,0.00,,---,0.00,VWS V14.01,2013-03-18 17:22:00,
2013-03-18 11:27:00,38.6,9.9,29.86,WNW,294,15.0,15.0,30,0.00,,---,0.00,VWS V14.01,2013-03-18 17:27:00,
2013-03-18 11:32:00,38.6,9.1,29.86,WNW,283,16.0,16.0,29,0.00,,---,0.00,VWS V14.01,2013-03-18 17:32:00,
2013-03-18 11:37:00,39.3,10.5,29.86,WNW,299,16.0,25.0,30,0.00,,---,0.00,VWS V14.01,2013-03-18 17:37:00,
2013-03-18 11:42:00,39.2,10.4,29.86,West,269,22.0,29.0,30,0.00,,---,0.00,VWS V14.01,2013-03-18 17:42:00,
2013-03-18 11:47:00,38.7,9.2,29.85,West,268,13.0,16.0,29,0.00,,---,0.00,VWS V14.01,2013-03-18 17:47:00,
2013-03-18 11:52:00,39.3,8.9,29.86,WNW,300,9.0,23.0,28,0.00,,---,0.00,VWS V14.01,2013-03-18 17:52:00,
2013-03-18 11:57:00,39.2,9.6,29.85,WNW,283,13.0,19.0,29,0.00,,---,0.00,VWS V14.01,2013-03-18 17:57:00,
2013-03-18 12:02:00,39.6,10.0,29.84,WSW,250,9.0,16.0,29,0.00,,---,0.00,VWS V14.01,2013-03-18 18:02:00,
2013-03-18 12:07:00,39.4,9.0,29.85,WSW,250,11.0,13.0,28,0.00,,---,0.00,VWS V14.01,2013-03-18 18:07:00,
2013-03-18 12:12:00,40.0,10.3,29.85,West,272,9.0,18.0,29,0.00,,---,0.00,VWS V14.01,2013-03-18 18:12:00,
2013-03-18 12:17:00,40.0,9.5,29.85,WSW,240,18.0,20.0,28,0.00,,---,0.00,VWS V14.01,2013-03-18 18:17:00,
2013-03-18 12:22:00,40.2,10.5,29.85,NW,322,14.0,14.0,29,0.00,,---,0.00,VWS V14.01,2013-03-18 18:22:00,
2013-03-18 12:27:00,39.9,9.4,29.85,WNW,296,10.0,20.0,28,0.00,,---,0.00,VWS V14.01,2013-03-18 18:27:00,
2013-03-18 12:32:00,40.5,8.3,29.83,West,281,10.0,14.0,26,0.00,,---,0.00,VWS V14.01,2013-03-18 18:32:00,
2013-03-18 12:37:00,40.9,8.7,29.83,SW,218,15.0,20.0,26,0.00,,---,0.00,VWS V14.01,2013-03-18 18:37:00,
2013-03-18 12:42:00,40.9,8.7,29.83,NW,314,11.0,12.0,26,0.00,,---,0.00,VWS V14.01,2013-03-18 18:42:00,
2013-03-18 12:47:00,41.0,7.9,29.83,WNW,302,18.0,18.0,25,0.00,,---,0.00,VWS V14.01,2013-03-18 18:47:00,
2013-03-18 12:52:00,40.6,9.2,29.83,West,269,12.0,13.0,27,0.00,,---,0.00,VWS V14.01,2013-03-18 18:52:00,
2013-03-18 12:57:00,41.0,9.6,29.82,NW,315,12.0,15.0,27,0.00,,---,0.00,VWS V14.01,2013-03-18 18:57:00,
2013-03-18 13:02:00,41.3,9.0,29.83,West,273,19.0,23.0,26,0.00,,---,0.00,VWS V14.01,2013-03-18 19:02:00,
2013-03-18 13:07:00,41.2,9.8,29.82,NNW,334,19.0,26.0,27,0.00,,---,0.00,VWS V14.01,2013-03-18 19:07:00,
2013-03-18 13:12:00,41.2,8.9,29.84,NW,318,14.0,16.0,26,0.00,,---,0.00,VWS V14.01,2013-03-18 19:12:00,
2013-03-18 13:17:00,41.4,8.2,29.83,NW,312,16.0,20.0,25,0.00,,---,0.00,VWS V14.01,2013-03-18 19:17:00,
2013-03-18 13:22:00,41.3,9.0,29.83,West,264,11.0,11.0,26,0.00,,---,0.00,VWS V14.01,2013-03-18 19:22:00,
2013-03-18 13:27:00,41.8,8.6,29.82,NW,321,9.0,19.0,25,0.00,,---,0.00,VWS V14.01,2013-03-18 19:27:00,
2013-03-18 13:32:00,42.3,9.0,29.81,WNW,302,13.0,22.0,25,0.00,,---,0.00,VWS V14.01,2013-03-18 19:32:00,
2013-03-18 13:37:00,42.6,9.3,29.81,West,264,18.0,18.0,25,0.00,,---,0.00,VWS V14.01,2013-03-18 19:37:00,
2013-03-18 13:42:00,42.5,10.1,29.81,NW,306,19.0,20.0,26,0.00,,---,0.00,VWS V14.01,2013-03-18 19:42:00,
2013-03-18 13:47:00,42.2,9.8,29.81,West,269,12.0,13.0,26,0.00,,---,0.00,VWS V14.01,2013-03-18 19:47:00,
2013-03-18 13:52:00,42.5,8.3,29.81,WNW,286,11.0,13.0,24,0.00,,---,0.00,VWS V14.01,2013-03-18 19:52:00,
2013-03-18 13:57:00,42.2,8.0,29.81,NW,322,16.0,20.0,24,0.00,,---,0.00,VWS V14.01,2013-03-18 19:57:00,
2013-03-18 14:02:00,42.3,9.0,29.80,WNW,298,18.0,18.0,25,0.00,,---,0.00,VWS V14.01,2013-03-18 20:02:00,
2013-03-18 14:07:00,43.1,8.8,29.80,NW,309,11.0,15.0,24,0.00,,---,0.00,VWS V14.01,2013-03-18 20:07:00,
2013-03-18 14:12:00,42.3,7.2,29.82,NW,311,13.0,19.0,23,0.00,,---,0.00,VWS V14.01,2013-03-18 20:12:00,
2013-03-18 14:17:00,42.4,8.2,29.82,NW,311,16.0,24.0,24,0.00,,---,0.00,VWS V14.01,2013-03-18 20:17:00,
2013-03-18 14:22:00,42.7,6.5,29.80,West,272,9.0,20.0,22,0.00,,---,0.00,VWS V14.01,2013-03-18 20:22:00,
2013-03-18 14:27:00,43.0,7.8,29.80,NW,306,19.0,24.0,23,0.00,,---,0.00,VWS V14.01,2013-03-18 20:27:00,
2013-03-18 14:32:00,42.7,8.4,29.79,WNW,300,10.0,19.0,24,0.00,,---,0.00,VWS V14.01,2013-03-18 20:32:00,
2013-03-18 14:37:00,43.1,8.8,29.79,West,261,7.0,18.0,24,0.00,,---,0.00,VWS V14.01,2013-03-18 20:37:00,
2013-03-18 14:42:00,43.2,8.9,29.79,West,279,12.0,23.0,24,0.00,,---,0.00,VWS V14.01,2013-03-18 20:42:00,
2013-03-18 14:47:00,43.5,8.2,29.79,WNW,300,18.0,23.0,23,0.00,,---,0.00,VWS V14.01,2013-03-18 20:47:00,
2013-03-18 14:52:00,42.5,6.3,29.79,NW,309,14.0,18.0,22,0.00,,---,0.00,VWS V14.01,2013-03-18 20:52:00,
2013-03-18 14:57:00,42.9,6.7,29.78,NW,306,7.0,12.0,22,0.00,,---,0.00,VWS V14.01,2013-03-18 20:57:00,
2013-03-18 15:02:00,43.7,8.3,29.78,NW,309,15.0,15.0,23,0.00,,---,0.00,VWS V14.01,2013-03-18 21:02:00,
2013-03-18 15:07:00,43.3,8.0,29.80,NW,305,12.0,12.0,23,0.00,,---,0.00,VWS V14.01,2013-03-18 21:07:00,
2013-03-18 15:12:00,42.8,8.5,29.80,WNW,292,19.0,21.0,24,0.00,,---,0.00,VWS V14.01,2013-03-18 21:12:00,
2013-03-18 15:17:00,43.2,10.6,29.79,NW,311,11.0,20.0,26,0.00,,---,0.00,VWS V14.01,2013-03-18 21:17:00,
2013-03-18 15:22:00,43.4,8.1,29.80,West,275,9.0,15.0,23,0.00,,---,0.00,VWS V14.01,2013-03-18 21:22:00,
2013-03-18 15:27:00,43.2,8.9,29.80,WSW,249,8.0,15.0,24,0.00,,---,0.00,VWS V14.01,2013-03-18 21:27:00,
2013-03-18 15:32:00,43.4,7.1,29.80,West,263,12.0,14.0,22,0.00,,---,0.00,VWS V14.01,2013-03-18 21:32:00,
2013-03-18 15:37:00,43.3,8.0,29.80,WSW,258,20.0,24.0,23,0.00,,---,0.00,VWS V14.01,2013-03-18 21:37:00,
2013-03-18 15:42:00,43.4,9.0,29.79,WNW,291,9.0,24.0,24,0.00,,---,0.00,VWS V14.01,2013-03-18 21:42:00,
2013-03-18 15:47:00,43.8,9.4,29.77,WSW,257,11.0,15.0,24,0.00,,---,0.00,VWS V14.01,2013-03-18 21:47:00,
2013-03-18 15:52:00,44.1,8.7,29.77,NW,306,14.0,16.0,23,0.00,,---,0.00,VWS V14.01,2013-03-18 21:52:00,
2013-03-18 15:57:00,43.8,9.4,29.77,WSW,255,13.0,13.0,24,0.00,,---,0.00,VWS V14.01,2013-03-18 21:57:00,
2013-03-18 16:02:00,44.0,9.5,29.77,West,259,9.0,13.0,24,0.00,,---,0.00,VWS V14.01,2013-03-18 22:02:00,
2013-03-18 16:07:00,44.4,8.9,29.79,NW,310,8.0,12.0,23,0.00,,---,0.00,VWS V14.01,2013-03-18 22:07:00,
2013-03-18 16:12:00,44.2,9.7,29.79,West,261,6.0,11.0,24,0.00,,---,0.00,VWS V14.01,2013-03-18 22:12:00,
2013-03-18 16:17:00,44.9,10.3,29.76,NW,318,7.0,11.0,24,0.00,,---,0.00,VWS V14.01,2013-03-18 22:17:00,
2013-03-18 16:22:00,44.5,8.0,29.77,WNW,302,16.0,16.0,22,0.00,,---,0.00,VWS V14.01,2013-03-18 22:22:00,
2013-03-18 16:27:00,44.1,8.7,29.79,West,263,8.0,12.0,23,0.00,,---,0.00,VWS V14.01,2013-03-18 22:27:00,
2013-03-18 16:32:00,44.1,9.6,29.79,West,271,13.0,14.0,24,0.00,,---,0.00,VWS V14.01,2013-03-18 22:32:00,
2013-03-18 16:37:00,44.9,9.4,29.78,West,265,12.0,12.0,23,0.00,,---,0.00,VWS V14.01,2013-03-18 22:37:00,
2013-03-18 16:42:00,44.7,8.2,29.78,West,273,9.0,16.0,22,0.00,,---,0.00,VWS V14.01,2013-03-18 22:42:00,
2013-03-18 16:47:00,44.7,10.1,29.78,West,268,9.0,12.0,24,0.00,,---,0.00,VWS V14.01,2013-03-18 22:47:00,
2013-03-18 16:52:00,44.8,9.3,29.78,WNW,303,12.0,15.0,23,0.00,,---,0.00,VWS V14.01,2013-03-18 22:52:00,
2013-03-18 16:57:00,44.6,8.1,29.78,WNW,300,9.0,11.0,22,0.00,,---,0.00,VWS V14.01,2013-03-18 22:57:00,
2013-03-18 17:02:00,45.0,9.4,29.78,WSW,250,8.0,19.0,23,0.00,,---,0.00,VWS V14.01,2013-03-18 23:02:00,
2013-03-18 17:07:00,44.9,10.3,29.80,West,273,8.0,15.0,24,0.00,,---,0.00,VWS V14.01,2013-03-18 23:07:00,
2013-03-18 17:12:00,44.3,8.9,29.82,WSW,255,15.0,16.0,23,0.00,,---,0.00,VWS V14.01,2013-03-18 23:12:00,
2013-03-18 17:17:00,44.1,8.7,29.82,WNW,292,4.0,8.0,23,0.00,,---,0.00,VWS V14.01,2013-03-18 23:17:00,
2013-03-18 17:23:00,44.4,8.9,29.82,West,279,6.0,12.0,23,0.00,,---,0.00,VWS V14.01,2013-03-18 23:23:00,
2013-03-18 17:27:00,44.0,8.6,29.83,West,275,5.0,7.0,23,0.00,,---,0.00,VWS V14.01,2013-03-18 23:27:00,
2013-03-18 17:33:00,44.3,9.8,29.82,West,267,6.0,7.0,24,0.00,,---,0.00,VWS V14.01,2013-03-18 23:33:00,
2013-03-18 17:38:00,44.2,9.7,29.82,WNW,292,3.0,9.0,24,0.00,,---,0.00,VWS V14.01,2013-03-18 23:38:00,
2013-03-18 17:43:00,43.4,9.0,29.82,West,269,2.0,5.0,24,0.00,,---,0.00,VWS V14.01,2013-03-18 23:43:00,
2013-03-18 17:48:00,42.7,9.3,29.83,West,281,4.0,8.0,25,0.00,,---,0.00,VWS V14.01,2013-03-18 23:48:00,
2013-03-18 17:53:00,41.8,7.7,29.85,WNW,302,5.0,11.0,24,0.00,,---,0.00,VWS V14.01,2013-03-18 23:53:00,
2013-03-18 17:58:00,41.5,7.4,29.85,WNW,292,8.0,11.0,24,0.00,,---,0.00,VWS V14.01,2013-03-18 23:58:00,
2013-03-18 18:03:00,41.2,8.1,29.85,West,261,5.0,10.0,25,0.00,,---,0.00,VWS V14.01,2013-03-19 00:03:00,
2013-03-18 18:08:00,41.2,7.2,29.85,NW,313,6.0,12.0,24,0.00,,---,0.00,VWS V14.01,2013-03-19 00:08:00,
2013-03-18 18:13:00,41.0,8.8,29.85,NNW,341,8.0,12.0,26,0.00,,---,0.00,VWS V14.01,2013-03-19 00:13:00,
2013-03-18 18:18:00,41.4,9.1,29.85,WNW,302,7.0,14.0,26,0.00,,---,0.00,VWS V14.01,2013-03-19 00:18:00,
2013-03-18 18:23:00,42.2,8.9,29.85,NW,315,11.0,16.0,25,0.00,,---,0.00,VWS V14.01,2013-03-19 00:23:00,
2013-03-18 18:28:00,42.5,7.3,29.84,WNW,292,5.0,15.0,23,0.00,,---,0.00,VWS V14.01,2013-03-19 00:28:00,
2013-03-18 18:33:00,42.4,8.2,29.86,NNW,332,12.0,13.0,24,0.00,,---,0.00,VWS V14.01,2013-03-19 00:33:00,
2013-03-18 18:38:00,42.2,8.0,29.86,NNW,338,14.0,14.0,24,0.00,,---,0.00,VWS V14.01,2013-03-19 00:38:00,
2013-03-18 18:43:00,41.7,8.5,29.86,North,355,10.0,12.0,25,0.00,,---,0.00,VWS V14.01,2013-03-19 00:43:00,
2013-03-18 18:48:00,41.1,8.8,29.86,NNW,333,5.0,11.0,26,0.00,,---,0.00,VWS V14.01,2013-03-19 00:48:00,
2013-03-18 18:53:00,40.7,8.5,29.87,North,350,8.0,16.0,26,0.00,,---,0.00,VWS V14.01,2013-03-19 00:53:00,
2013-03-18 18:58:00,40.5,8.3,29.87,WNW,288,4.0,10.0,26,0.00,,---,0.00,VWS V14.01,2013-03-19 00:58:00,
2013-03-18 19:03:00,40.7,7.6,29.87,NNW,329,4.0,8.0,25,0.00,,---,0.00,VWS V14.01,2013-03-19 01:03:00,
2013-03-18 19:08:00,40.2,8.9,29.87,NNW,337,5.0,10.0,27,0.00,,---,0.00,VWS V14.01,2013-03-19 01:08:00,
2013-03-18 19:13:00,40.0,8.7,29.87,NNW,337,8.0,10.0,27,0.00,,---,0.00,VWS V14.01,2013-03-19 01:13:00,
2013-03-18 19:18:00,39.8,8.6,29.87,NNW,338,5.0,8.0,27,0.00,,---,0.00,VWS V14.01,2013-03-19 01:18:00,
2013-03-18 19:23:00,39.5,8.3,29.87,NNW,337,9.0,9.0,27,0.00,,---,0.00,VWS V14.01,2013-03-19 01:23:00,
2013-03-18 19:28:00,39.1,8.8,29.88,NNW,341,5.0,9.0,28,0.00,,---,0.00,VWS V14.01,2013-03-19 01:28:00,
2013-03-18 19:33:00,39.1,8.8,29.87,NW,304,4.0,10.0,28,0.00,,---,0.00,VWS V14.01,2013-03-19 01:33:00,
2013-03-18 19:38:00,39.2,8.9,29.87,NW,311,6.0,7.0,28,0.00,,---,0.00,VWS V14.01,2013-03-19 01:38:00,
2013-03-18 19:43:00,39.3,8.9,29.87,NW,314,0.0,2.0,28,0.00,,---,0.00,VWS V14.01,2013-03-19 01:43:00,
2013-03-18 19:48:00,38.9,8.6,29.87,NW,315,0.0,1.0,28,0.00,,---,0.00,VWS V14.01,2013-03-19 01:48:00,
2013-03-18 19:53:00,38.5,9.0,29.87,NW,315,0.0,1.0,29,0.00,,---,0.00,VWS V14.01,2013-03-19 01:53:00,
2013-03-18 19:58:00,38.0,9.3,29.89,NW,315,0.0,2.0,30,0.00,,---,0.00,VWS V14.01,2013-03-19 01:58:00,
2013-03-18 20:03:00,37.3,9.4,29.89,NW,316,0.0,4.0,31,0.00,,---,0.00,VWS V14.01,2013-03-19 02:03:00,
2013-03-18 20:08:00,36.6,10.2,29.88,NW,316,2.0,4.0,33,0.00,,---,0.00,VWS V14.01,2013-03-19 02:08:00,
2013-03-18 20:13:00,35.9,9.6,29.90,NW,316,0.0,1.0,33,0.00,,---,0.00,VWS V14.01,2013-03-19 02:13:00,
2013-03-18 20:18:00,35.7,10.1,29.91,NW,316,0.0,0.0,34,0.00,,---,0.00,VWS V14.01,2013-03-19 02:18:00,
2013-03-18 20:23:00,35.8,10.2,29.91,NW,316,0.0,3.0,34,0.00,,---,0.00,VWS V14.01,2013-03-19 02:23:00,
2013-03-18 20:28:00,35.7,9.4,29.91,NW,316,0.0,0.0,33,0.00,,---,0.00,VWS V14.01,2013-03-19 02:28:00,
2013-03-18 20:33:00,36.0,9.0,29.92,NNW,346,7.0,8.0,32,0.00,,---,0.00,VWS V14.01,2013-03-19 02:33:00,
2013-03-18 20:38:00,37.1,10.0,29.90,NW,304,0.0,2.0,32,0.00,,---,0.00,VWS V14.01,2013-03-19 02:38:00,
2013-03-18 20:43:00,37.2,9.4,29.90,NW,304,0.0,6.0,31,0.00,,---,0.00,VWS V14.01,2013-03-19 02:43:00,
2013-03-18 20:48:00,37.0,9.2,29.90,NW,304,1.0,2.0,31,0.00,,---,0.00,VWS V14.01,2013-03-19 02:48:00,
2013-03-18 20:53:00,37.0,9.2,29.90,NW,304,0.0,1.0,31,0.00,,---,0.00,VWS V14.01,2013-03-19 02:53:00,
2013-03-18 20:58:00,36.8,9.0,29.90,NW,313,0.0,6.0,31,0.00,,---,0.00,VWS V14.01,2013-03-19 02:58:00,
2013-03-18 21:03:00,36.5,8.8,29.90,NW,312,0.0,0.0,31,0.00,,---,0.00,VWS V14.01,2013-03-19 03:03:00,
2013-03-18 21:08:00,36.2,8.5,29.92,NW,313,0.0,0.0,31,0.00,,---,0.00,VWS V14.01,2013-03-19 03:08:00,
2013-03-18 21:13:00,35.8,8.1,29.92,NW,313,0.0,0.0,31,0.00,,---,0.00,VWS V14.01,2013-03-19 03:13:00,
2013-03-18 21:18:00,35.6,8.7,29.92,NW,312,0.0,0.0,32,0.00,,---,0.00,VWS V14.01,2013-03-19 03:18:00,
2013-03-18 21:24:00,36.0,7.6,29.92,WNW,288,0.0,6.0,30,0.00,,---,0.00,VWS V14.01,2013-03-19 03:24:00,
2013-03-18 21:29:00,36.0,8.3,29.92,WNW,288,0.0,2.0,31,0.00,,---,0.00,VWS V14.01,2013-03-19 03:29:00,
2013-03-18 21:34:00,36.1,7.7,29.92,WNW,288,2.0,5.0,30,0.00,,---,0.00,VWS V14.01,2013-03-19 03:34:00,
2013-03-18 21:39:00,37.1,6.2,29.91,West,261,8.0,11.0,27,0.00,,---,0.00,VWS V14.01,2013-03-19 03:39:00,
2013-03-18 21:44:00,39.5,6.6,29.89,West,279,7.0,12.0,25,0.00,,---,0.00,VWS V14.01,2013-03-19 03:44:00,
2013-03-18 21:49:00,39.4,6.5,29.89,West,260,6.0,12.0,25,0.00,,---,0.00,VWS V14.01,2013-03-19 03:49:00,
2013-03-18 21:54:00,39.3,7.3,29.89,WNW,283,5.0,14.0,26,0.00,,---,0.00,VWS V14.01,2013-03-19 03:54:00,
2013-03-18 21:59:00,39.3,7.3,29.89,West,281,7.0,11.0,26,0.00,,---,0.00,VWS V14.01,2013-03-19 03:59:00,
2013-03-18 22:00:00,39.5,6.6,29.89,NW,304,7.0,12.0,25,0.00,,---,0.00,VWS V14.01,2013-03-19 04:00:00,
2013-03-18 22:01:00,39.7,6.8,29.89,WNW,302,9.0,12.0,25,0.00,,---,0.00,VWS V14.01,2013-03-19 04:01:00,
2013-03-18 22:04:00,39.7,7.6,29.89,WNW,287,6.0,15.0,26,0.00,,---,0.00,VWS V14.01,2013-03-19 04:04:00,
2013-03-18 22:09:00,39.1,7.9,29.88,West,271,4.0,8.0,27,0.00,,---,0.00,VWS V14.01,2013-03-19 04:09:00,
2013-03-18 22:14:00,38.3,8.1,29.88,West,271,1.0,5.0,28,0.00,,---,0.00,VWS V14.01,2013-03-19 04:14:00,
2013-03-18 22:19:00,38.6,7.5,29.88,WNW,283,5.0,8.0,27,0.00,,---,0.00,VWS V14.01,2013-03-19 04:19:00,
2013-03-18 22:24:00,38.8,7.7,29.88,WNW,292,6.0,9.0,27,0.00,,---,0.00,VWS V14.01,2013-03-19 04:24:00,
2013-03-18 22:29:00,38.8,7.7,29.88,West,269,7.0,7.0,27,0.00,,---,0.00,VWS V14.01,2013-03-19 04:29:00,
2013-03-18 22:34:00,38.4,7.3,29.88,WNW,283,2.0,5.0,27,0.00,,---,0.00,VWS V14.01,2013-03-19 04:34:00,
2013-03-18 22:39:00,38.5,7.4,29.89,WNW,286,4.0,6.0,27,0.00,,---,0.00,VWS V14.01,2013-03-19 04:39:00,
2013-03-18 22:44:00,38.8,6.9,29.88,West,268,2.0,8.0,26,0.00,,---,0.00,VWS V14.01,2013-03-19 04:44:00,
2013-03-18 22:49:00,39.2,6.3,29.89,WNW,285,6.0,10.0,25,0.00,,---,0.00,VWS V14.01,2013-03-19 04:49:00,
2013-03-18 22:54:00,39.5,6.6,29.87,West,276,4.0,5.0,25,0.00,,---,0.00,VWS V14.01,2013-03-19 04:54:00,
2013-03-18 22:59:00,39.3,7.3,29.89,WSW,247,7.0,12.0,26,0.00,,---,0.00,VWS V14.01,2013-03-19 04:59:00,
2013-03-18 23:04:00,40.0,7.0,29.87,WSW,258,13.0,15.0,25,0.00,,---,0.00,VWS V14.01,2013-03-19 05:04:00,
2013-03-18 23:09:00,40.2,7.2,29.87,WNW,290,5.0,6.0,25,0.00,,---,0.00,VWS V14.01,2013-03-19 05:09:00,
2013-03-18 23:14:00,39.5,7.5,29.87,WNW,290,2.0,4.0,26,0.00,,---,0.00,VWS V14.01,2013-03-19 05:14:00,
2013-03-18 23:19:00,39.3,5.5,29.87,SSE,162,4.0,8.0,24,0.00,,---,0.00,VWS V14.01,2013-03-19 05:19:00,
2013-03-18 23:24:00,39.7,5.9,29.87,SSE,165,4.0,5.0,24,0.00,,---,0.00,VWS V14.01,2013-03-19 05:24:00,
2013-03-18 23:29:00,39.7,5.9,29.86,WSW,254,5.0,14.0,24,0.00,,---,0.00,VWS V14.01,2013-03-19 05:29:00,
2013-03-18 23:34:00,39.9,6.9,29.87,West,277,2.0,7.0,25,0.00,,---,0.00,VWS V14.01,2013-03-19 05:34:00,
2013-03-18 23:39:00,39.4,6.5,29.86,West,267,6.0,10.0,25,0.00,,---,0.00,VWS V14.01,2013-03-19 05:39:00,
2013-03-18 23:44:00,39.4,5.6,29.86,West,275,4.0,13.0,24,0.00,,---,0.00,VWS V14.01,2013-03-19 05:44:00,